sensor_id;sensor_type;location;lat;lon;timestamp;P1;durP1;ratioP1;P2;durP2;ratioP2
27013;SDS011;14556;52.222;4.510;2022-10-26T00:00:24;5.37;;;3.87;;
27013;SDS011;14556;52.222;4.510;2022-10-26T00:02:52;8.73;;;3.73;;
27013;SDS011;14556;52.222;4.510;2022-10-26T00:05:20;8.87;;;4.20;;
27013;SDS011;14556;52.222;4.510;2022-10-26T00:07:50;6.13;;;3.57;;
27013;SDS011;14556;52.222;4.510;2022-10-26T00:10:16;7.70;;;3.80;;
27013;SDS011;14556;52.222;4.510;2022-10-26T00:12:47;6.13;;;3.33;;
27013;SDS011;14556;52.222;4.510;2022-10-26T00:15:17;8.83;;;3.70;;
27013;SDS011;14556;52.222;4.510;2022-10-26T00:17:45;5.40;;;3.77;;
27013;SDS011;14556;52.222;4.510;2022-10-26T00:20:13;5.13;;;3.43;;
27013;SDS011;14556;52.222;4.510;2022-10-26T00:22:40;11.53;;;3.87;;
27013;SDS011;14556;52.222;4.510;2022-10-26T00:25:06;6.20;;;3.73;;
27013;SDS011;14556;52.222;4.510;2022-10-26T00:27:33;9.00;;;3.90;;
27013;SDS011;14556;52.222;4.510;2022-10-26T00:30:01;8.00;;;4.40;;
27013;SDS011;14556;52.222;4.510;2022-10-26T00:32:28;8.93;;;4.30;;
27013;SDS011;14556;52.222;4.510;2022-10-26T00:34:55;6.87;;;4.37;;
27013;SDS011;14556;52.222;4.510;2022-10-26T00:37:21;5.73;;;4.27;;
27013;SDS011;14556;52.222;4.510;2022-10-26T00:39:47;8.80;;;4.37;;
27013;SDS011;14556;52.222;4.510;2022-10-26T00:42:17;9.33;;;4.60;;
27013;SDS011;14556;52.222;4.510;2022-10-26T00:47:13;6.77;;;3.93;;
27013;SDS011;14556;52.222;4.510;2022-10-26T00:49:42;9.70;;;3.80;;
27013;SDS011;14556;52.222;4.510;2022-10-26T00:52:12;5.70;;;3.97;;
27013;SDS011;14556;52.222;4.510;2022-10-26T00:54:41;6.17;;;3.90;;
27013;SDS011;14556;52.222;4.510;2022-10-26T00:57:08;8.50;;;4.07;;
27013;SDS011;14556;52.222;4.510;2022-10-26T00:59:37;12.10;;;4.27;;
27013;SDS011;14556;52.222;4.510;2022-10-26T01:02:04;7.63;;;4.43;;
27013;SDS011;14556;52.222;4.510;2022-10-26T01:04:31;9.33;;;4.27;;
27013;SDS011;14556;52.222;4.510;2022-10-26T01:07:02;8.83;;;4.43;;
27013;SDS011;14556;52.222;4.510;2022-10-26T01:09:31;7.70;;;3.97;;
27013;SDS011;14556;52.222;4.510;2022-10-26T01:11:58;7.50;;;4.47;;
27013;SDS011;14556;52.222;4.510;2022-10-26T01:14:25;6.67;;;4.67;;
27013;SDS011;14556;52.222;4.510;2022-10-26T01:22:34;9.90;;;5.50;;
27013;SDS011;14556;52.222;4.510;2022-10-26T01:25:32;8.33;;;5.27;;
27013;SDS011;14556;52.222;4.510;2022-10-26T01:28:07;7.33;;;5.20;;
27013;SDS011;14556;52.222;4.510;2022-10-26T01:30:45;13.13;;;4.97;;
27013;SDS011;14556;52.222;4.510;2022-10-26T01:35:51;7.10;;;4.67;;
27013;SDS011;14556;52.222;4.510;2022-10-26T01:38:24;6.97;;;4.70;;
27013;SDS011;14556;52.222;4.510;2022-10-26T01:41:11;7.97;;;4.53;;
27013;SDS011;14556;52.222;4.510;2022-10-26T01:43:56;7.27;;;4.40;;
27013;SDS011;14556;52.222;4.510;2022-10-26T01:46:28;9.30;;;4.97;;
27013;SDS011;14556;52.222;4.510;2022-10-26T01:49:01;7.20;;;5.20;;
27013;SDS011;14556;52.222;4.510;2022-10-26T01:51:32;6.37;;;4.43;;
27013;SDS011;14556;52.222;4.510;2022-10-26T01:54:00;7.23;;;4.77;;
27013;SDS011;14556;52.222;4.510;2022-10-26T01:56:28;10.57;;;5.17;;
27013;SDS011;14556;52.222;4.510;2022-10-26T02:04:24;8.53;;;5.10;;
27013;SDS011;14556;52.222;4.510;2022-10-26T02:17:38;12.10;;;5.23;;
27013;SDS011;14556;52.222;4.510;2022-10-26T02:20:31;7.63;;;5.13;;
27013;SDS011;14556;52.222;4.510;2022-10-26T02:23:02;7.50;;;5.00;;
27013;SDS011;14556;52.222;4.510;2022-10-26T02:25:34;8.20;;;4.50;;
27013;SDS011;14556;52.222;4.510;2022-10-26T02:28:06;9.63;;;4.50;;
27013;SDS011;14556;52.222;4.510;2022-10-26T02:30:36;8.53;;;5.00;;
27013;SDS011;14556;52.222;4.510;2022-10-26T02:33:05;10.37;;;5.23;;
27013;SDS011;14556;52.222;4.510;2022-10-26T02:35:35;8.23;;;5.17;;
27013;SDS011;14556;52.222;4.510;2022-10-26T02:38:06;9.07;;;5.43;;
27013;SDS011;14556;52.222;4.510;2022-10-26T02:40:35;8.27;;;5.20;;
27013;SDS011;14556;52.222;4.510;2022-10-26T02:43:04;7.20;;;4.80;;
27013;SDS011;14556;52.222;4.510;2022-10-26T02:45:35;9.47;;;5.30;;
27013;SDS011;14556;52.222;4.510;2022-10-26T02:48:05;7.83;;;5.50;;
27013;SDS011;14556;52.222;4.510;2022-10-26T02:50:33;11.63;;;5.23;;
27013;SDS011;14556;52.222;4.510;2022-10-26T02:53:16;6.70;;;4.93;;
27013;SDS011;14556;52.222;4.510;2022-10-26T02:55:50;7.40;;;5.17;;
27013;SDS011;14556;52.222;4.510;2022-10-26T02:58:18;6.17;;;4.80;;
27013;SDS011;14556;52.222;4.510;2022-10-26T03:00:50;9.23;;;5.07;;
27013;SDS011;14556;52.222;4.510;2022-10-26T03:03:17;9.37;;;5.10;;
27013;SDS011;14556;52.222;4.510;2022-10-26T03:05:45;7.50;;;5.07;;
27013;SDS011;14556;52.222;4.510;2022-10-26T03:08:11;9.87;;;5.60;;
27013;SDS011;14556;52.222;4.510;2022-10-26T03:10:44;10.17;;;5.57;;
27013;SDS011;14556;52.222;4.510;2022-10-26T03:13:11;9.87;;;5.17;;
27013;SDS011;14556;52.222;4.510;2022-10-26T03:15:38;10.97;;;5.47;;
27013;SDS011;14556;52.222;4.510;2022-10-26T03:18:05;8.73;;;5.17;;
27013;SDS011;14556;52.222;4.510;2022-10-26T03:20:32;9.53;;;5.20;;
27013;SDS011;14556;52.222;4.510;2022-10-26T03:22:59;11.03;;;5.57;;
27013;SDS011;14556;52.222;4.510;2022-10-26T03:25:25;7.70;;;4.83;;
27013;SDS011;14556;52.222;4.510;2022-10-26T03:27:56;9.87;;;5.23;;
27013;SDS011;14556;52.222;4.510;2022-10-26T03:30:24;11.47;;;5.30;;
27013;SDS011;14556;52.222;4.510;2022-10-26T03:32:51;8.33;;;4.97;;
27013;SDS011;14556;52.222;4.510;2022-10-26T03:35:17;10.83;;;5.63;;
27013;SDS011;14556;52.222;4.510;2022-10-26T03:37:44;8.50;;;5.43;;
27013;SDS011;14556;52.222;4.510;2022-10-26T03:40:11;8.93;;;5.37;;
27013;SDS011;14556;52.222;4.510;2022-10-26T03:42:38;12.73;;;5.60;;
27013;SDS011;14556;52.222;4.510;2022-10-26T03:45:05;13.27;;;5.13;;
27013;SDS011;14556;52.222;4.510;2022-10-26T03:47:32;7.73;;;5.23;;
27013;SDS011;14556;52.222;4.510;2022-10-26T03:49:59;8.93;;;5.50;;
27013;SDS011;14556;52.222;4.510;2022-10-26T03:52:26;10.03;;;4.83;;
27013;SDS011;14556;52.222;4.510;2022-10-26T03:54:52;10.17;;;4.60;;
27013;SDS011;14556;52.222;4.510;2022-10-26T03:57:18;10.67;;;4.80;;
27013;SDS011;14556;52.222;4.510;2022-10-26T03:59:45;6.63;;;4.47;;
27013;SDS011;14556;52.222;4.510;2022-10-26T04:02:11;8.90;;;4.23;;
27013;SDS011;14556;52.222;4.510;2022-10-26T04:04:39;8.20;;;4.77;;
27013;SDS011;14556;52.222;4.510;2022-10-26T04:07:05;10.17;;;4.63;;
27013;SDS011;14556;52.222;4.510;2022-10-26T04:09:32;6.83;;;4.50;;
27013;SDS011;14556;52.222;4.510;2022-10-26T04:11:58;8.47;;;4.17;;
27013;SDS011;14556;52.222;4.510;2022-10-26T04:14:25;10.60;;;5.17;;
27013;SDS011;14556;52.222;4.510;2022-10-26T04:16:51;7.23;;;4.73;;
27013;SDS011;14556;52.222;4.510;2022-10-26T04:19:18;7.17;;;5.03;;
27013;SDS011;14556;52.222;4.510;2022-10-26T04:21:44;6.97;;;5.10;;
27013;SDS011;14556;52.222;4.510;2022-10-26T04:24:11;10.73;;;5.17;;
27013;SDS011;14556;52.222;4.510;2022-10-26T04:26:37;9.30;;;4.57;;
27013;SDS011;14556;52.222;4.510;2022-10-26T04:29:04;9.67;;;4.90;;
27013;SDS011;14556;52.222;4.510;2022-10-26T04:31:32;9.00;;;4.50;;
27013;SDS011;14556;52.222;4.510;2022-10-26T04:33:58;8.33;;;5.30;;
27013;SDS011;14556;52.222;4.510;2022-10-26T04:36:25;10.27;;;4.50;;
27013;SDS011;14556;52.222;4.510;2022-10-26T04:38:51;6.93;;;4.67;;
27013;SDS011;14556;52.222;4.510;2022-10-26T04:41:18;8.90;;;5.00;;
27013;SDS011;14556;52.222;4.510;2022-10-26T04:43:44;7.00;;;4.03;;
27013;SDS011;14556;52.222;4.510;2022-10-26T04:46:10;7.40;;;4.67;;
27013;SDS011;14556;52.222;4.510;2022-10-26T04:48:42;13.43;;;5.00;;
27013;SDS011;14556;52.222;4.510;2022-10-26T04:51:08;8.33;;;4.47;;
27013;SDS011;14556;52.222;4.510;2022-10-26T04:53:35;6.00;;;4.53;;
27013;SDS011;14556;52.222;4.510;2022-10-26T04:56:01;9.33;;;5.30;;
27013;SDS011;14556;52.222;4.510;2022-10-26T04:58:28;12.53;;;5.47;;
27013;SDS011;14556;52.222;4.510;2022-10-26T05:00:55;8.23;;;4.83;;
27013;SDS011;14556;52.222;4.510;2022-10-26T05:03:21;8.67;;;5.27;;
27013;SDS011;14556;52.222;4.510;2022-10-26T05:05:48;10.53;;;5.83;;
27013;SDS011;14556;52.222;4.510;2022-10-26T05:08:14;7.63;;;4.87;;
27013;SDS011;14556;52.222;4.510;2022-10-26T05:10:41;11.00;;;5.37;;
27013;SDS011;14556;52.222;4.510;2022-10-26T05:13:08;7.90;;;4.83;;
27013;SDS011;14556;52.222;4.510;2022-10-26T05:15:35;8.90;;;5.17;;
27013;SDS011;14556;52.222;4.510;2022-10-26T05:18:02;7.47;;;4.90;;
27013;SDS011;14556;52.222;4.510;2022-10-26T05:20:31;10.33;;;5.43;;
27013;SDS011;14556;52.222;4.510;2022-10-26T05:22:59;7.17;;;4.73;;
27013;SDS011;14556;52.222;4.510;2022-10-26T05:25:28;13.40;;;5.57;;
27013;SDS011;14556;52.222;4.510;2022-10-26T05:27:57;14.37;;;5.50;;
27013;SDS011;14556;52.222;4.510;2022-10-26T05:30:24;10.13;;;4.97;;
27013;SDS011;14556;52.222;4.510;2022-10-26T05:32:54;9.53;;;5.70;;
27013;SDS011;14556;52.222;4.510;2022-10-26T05:35:22;12.17;;;5.60;;
27013;SDS011;14556;52.222;4.510;2022-10-26T05:37:49;7.67;;;5.00;;
27013;SDS011;14556;52.222;4.510;2022-10-26T05:40:15;13.77;;;5.63;;
27013;SDS011;14556;52.222;4.510;2022-10-26T05:42:43;12.23;;;5.90;;
27013;SDS011;14556;52.222;4.510;2022-10-26T05:45:10;8.47;;;5.07;;
27013;SDS011;14556;52.222;4.510;2022-10-26T05:47:37;9.23;;;4.60;;
27013;SDS011;14556;52.222;4.510;2022-10-26T05:50:04;8.57;;;5.53;;
27013;SDS011;14556;52.222;4.510;2022-10-26T05:52:37;9.57;;;5.20;;
27013;SDS011;14556;52.222;4.510;2022-10-26T05:55:08;9.23;;;4.87;;
27013;SDS011;14556;52.222;4.510;2022-10-26T05:57:35;8.17;;;5.37;;
27013;SDS011;14556;52.222;4.510;2022-10-26T06:00:06;10.20;;;4.73;;
27013;SDS011;14556;52.222;4.510;2022-10-26T06:05:23;8.23;;;4.80;;
27013;SDS011;14556;52.222;4.510;2022-10-26T06:07:53;12.87;;;5.10;;
27013;SDS011;14556;52.222;4.510;2022-10-26T06:10:20;9.10;;;4.73;;
27013;SDS011;14556;52.222;4.510;2022-10-26T06:12:46;8.67;;;5.53;;
27013;SDS011;14556;52.222;4.510;2022-10-26T06:15:17;8.13;;;5.23;;
27013;SDS011;14556;52.222;4.510;2022-10-26T06:26:14;12.37;;;5.67;;
27013;SDS011;14556;52.222;4.510;2022-10-26T06:29:01;15.00;;;5.50;;
27013;SDS011;14556;52.222;4.510;2022-10-26T06:31:37;9.67;;;4.80;;
27013;SDS011;14556;52.222;4.510;2022-10-26T06:34:04;8.80;;;4.67;;
27013;SDS011;14556;52.222;4.510;2022-10-26T06:36:30;8.97;;;4.57;;
27013;SDS011;14556;52.222;4.510;2022-10-26T06:39:02;6.93;;;4.40;;
27013;SDS011;14556;52.222;4.510;2022-10-26T06:41:32;9.13;;;5.27;;
27013;SDS011;14556;52.222;4.510;2022-10-26T06:44:00;5.33;;;3.90;;
27013;SDS011;14556;52.222;4.510;2022-10-26T06:49:29;9.00;;;4.40;;
27013;SDS011;14556;52.222;4.510;2022-10-26T06:52:04;10.80;;;3.87;;
27013;SDS011;14556;52.222;4.510;2022-10-26T06:54:47;10.43;;;4.33;;
27013;SDS011;14556;52.222;4.510;2022-10-26T06:57:20;5.27;;;3.87;;
27013;SDS011;14556;52.222;4.510;2022-10-26T06:59:57;9.83;;;4.60;;
27013;SDS011;14556;52.222;4.510;2022-10-26T07:02:27;6.70;;;3.87;;
27013;SDS011;14556;52.222;4.510;2022-10-26T07:04:54;10.30;;;3.90;;
27013;SDS011;14556;52.222;4.510;2022-10-26T07:07:21;6.57;;;3.80;;
27013;SDS011;14556;52.222;4.510;2022-10-26T07:09:50;9.53;;;4.47;;
27013;SDS011;14556;52.222;4.510;2022-10-26T07:12:16;8.73;;;4.33;;
27013;SDS011;14556;52.222;4.510;2022-10-26T07:14:43;13.30;;;4.70;;
27013;SDS011;14556;52.222;4.510;2022-10-26T07:17:09;6.40;;;3.80;;
27013;SDS011;14556;52.222;4.510;2022-10-26T07:19:38;9.73;;;4.20;;
27013;SDS011;14556;52.222;4.510;2022-10-26T07:22:05;7.93;;;3.60;;
27013;SDS011;14556;52.222;4.510;2022-10-26T07:24:32;7.90;;;3.80;;
27013;SDS011;14556;52.222;4.510;2022-10-26T07:26:58;7.17;;;3.93;;
27013;SDS011;14556;52.222;4.510;2022-10-26T07:29:25;7.03;;;3.63;;
27013;SDS011;14556;52.222;4.510;2022-10-26T07:31:52;6.13;;;3.47;;
27013;SDS011;14556;52.222;4.510;2022-10-26T07:34:23;9.37;;;3.80;;
27013;SDS011;14556;52.222;4.510;2022-10-26T07:36:50;7.73;;;3.30;;
27013;SDS011;14556;52.222;4.510;2022-10-26T07:39:16;11.90;;;4.20;;
27013;SDS011;14556;52.222;4.510;2022-10-26T07:41:43;7.37;;;3.93;;
27013;SDS011;14556;52.222;4.510;2022-10-26T07:44:11;9.00;;;4.57;;
27013;SDS011;14556;52.222;4.510;2022-10-26T07:46:37;6.23;;;3.77;;
27013;SDS011;14556;52.222;4.510;2022-10-26T07:49:03;9.30;;;3.90;;
27013;SDS011;14556;52.222;4.510;2022-10-26T07:51:30;8.83;;;4.07;;
27013;SDS011;14556;52.222;4.510;2022-10-26T07:53:56;8.33;;;3.60;;
27013;SDS011;14556;52.222;4.510;2022-10-26T07:56:24;7.67;;;4.13;;
27013;SDS011;14556;52.222;4.510;2022-10-26T07:58:53;6.43;;;3.37;;
27013;SDS011;14556;52.222;4.510;2022-10-26T08:01:20;9.13;;;4.00;;
27013;SDS011;14556;52.222;4.510;2022-10-26T08:03:50;5.77;;;3.87;;
27013;SDS011;14556;52.222;4.510;2022-10-26T08:06:17;8.03;;;4.00;;
27013;SDS011;14556;52.222;4.510;2022-10-26T08:08:44;7.83;;;3.63;;
27013;SDS011;14556;52.222;4.510;2022-10-26T08:11:13;6.90;;;3.73;;
27013;SDS011;14556;52.222;4.510;2022-10-26T08:13:40;6.37;;;3.57;;
27013;SDS011;14556;52.222;4.510;2022-10-26T08:16:07;7.13;;;3.37;;
27013;SDS011;14556;52.222;4.510;2022-10-26T08:18:33;6.63;;;3.23;;
27013;SDS011;14556;52.222;4.510;2022-10-26T08:21:03;7.77;;;3.77;;
27013;SDS011;14556;52.222;4.510;2022-10-26T08:23:46;8.33;;;3.57;;
27013;SDS011;14556;52.222;4.510;2022-10-26T08:26:12;9.27;;;4.10;;
27013;SDS011;14556;52.222;4.510;2022-10-26T08:28:39;7.07;;;3.43;;
27013;SDS011;14556;52.222;4.510;2022-10-26T08:31:06;8.57;;;3.70;;
27013;SDS011;14556;52.222;4.510;2022-10-26T08:33:32;6.33;;;3.70;;
27013;SDS011;14556;52.222;4.510;2022-10-26T08:36:00;7.63;;;3.90;;
27013;SDS011;14556;52.222;4.510;2022-10-26T08:38:28;9.13;;;3.73;;
27013;SDS011;14556;52.222;4.510;2022-10-26T08:40:55;7.47;;;3.93;;
27013;SDS011;14556;52.222;4.510;2022-10-26T08:43:25;4.07;;;3.20;;
27013;SDS011;14556;52.222;4.510;2022-10-26T08:48:31;5.60;;;3.27;;
27013;SDS011;14556;52.222;4.510;2022-10-26T08:51:02;8.10;;;3.77;;
27013;SDS011;14556;52.222;4.510;2022-10-26T08:56:28;6.90;;;3.00;;
27013;SDS011;14556;52.222;4.510;2022-10-26T08:59:09;7.83;;;3.33;;
27013;SDS011;14556;52.222;4.510;2022-10-26T09:01:43;6.23;;;3.30;;
27013;SDS011;14556;52.222;4.510;2022-10-26T09:04:10;5.80;;;2.80;;
27013;SDS011;14556;52.222;4.510;2022-10-26T09:06:44;5.90;;;2.67;;
27013;SDS011;14556;52.222;4.510;2022-10-26T09:09:23;4.37;;;2.77;;
27013;SDS011;14556;52.222;4.510;2022-10-26T09:25:36;6.73;;;2.70;;
27013;SDS011;14556;52.222;4.510;2022-10-26T09:28:06;6.60;;;2.93;;
27013;SDS011;14556;52.222;4.510;2022-10-26T09:30:39;7.10;;;2.83;;
27013;SDS011;14556;52.222;4.510;2022-10-26T09:33:16;6.53;;;2.53;;
27013;SDS011;14556;52.222;4.510;2022-10-26T09:38:22;4.30;;;2.27;;
27013;SDS011;14556;52.222;4.510;2022-10-26T09:41:01;5.97;;;2.07;;
27013;SDS011;14556;52.222;4.510;2022-10-26T09:43:32;5.37;;;2.30;;
27013;SDS011;14556;52.222;4.510;2022-10-26T09:46:12;6.10;;;2.47;;
27013;SDS011;14556;52.222;4.510;2022-10-26T09:48:57;6.17;;;2.60;;
27013;SDS011;14556;52.222;4.510;2022-10-26T09:51:32;4.30;;;2.33;;
27013;SDS011;14556;52.222;4.510;2022-10-26T09:54:04;5.77;;;2.43;;
27013;SDS011;14556;52.222;4.510;2022-10-26T09:56:38;4.30;;;2.00;;
27013;SDS011;14556;52.222;4.510;2022-10-26T09:59:06;4.70;;;2.60;;
27013;SDS011;14556;52.222;4.510;2022-10-26T10:01:36;6.33;;;2.03;;
27013;SDS011;14556;52.222;4.510;2022-10-26T10:06:52;6.07;;;2.30;;
27013;SDS011;14556;52.222;4.510;2022-10-26T10:09:38;5.67;;;2.20;;
27013;SDS011;14556;52.222;4.510;2022-10-26T10:12:04;5.17;;;2.30;;
27013;SDS011;14556;52.222;4.510;2022-10-26T10:14:33;6.53;;;2.27;;
27013;SDS011;14556;52.222;4.510;2022-10-26T10:17:14;4.47;;;2.00;;
27013;SDS011;14556;52.222;4.510;2022-10-26T10:19:46;5.67;;;2.00;;
27013;SDS011;14556;52.222;4.510;2022-10-26T10:27:24;4.93;;;1.87;;
27013;SDS011;14556;52.222;4.510;2022-10-26T10:29:52;5.73;;;1.90;;
27013;SDS011;14556;52.222;4.510;2022-10-26T10:32:28;3.67;;;2.13;;
27013;SDS011;14556;52.222;4.510;2022-10-26T10:35:04;6.67;;;1.90;;
27013;SDS011;14556;52.222;4.510;2022-10-26T10:37:48;4.83;;;1.87;;
27013;SDS011;14556;52.222;4.510;2022-10-26T10:40:16;10.00;;;2.50;;
27013;SDS011;14556;52.222;4.510;2022-10-26T10:42:45;6.13;;;2.37;;
27013;SDS011;14556;52.222;4.510;2022-10-26T10:45:21;8.27;;;2.03;;
27013;SDS011;14556;52.222;4.510;2022-10-26T10:48:03;5.03;;;2.33;;
27013;SDS011;14556;52.222;4.510;2022-10-26T10:50:52;3.00;;;1.77;;
27013;SDS011;14556;52.222;4.510;2022-10-26T10:53:24;4.70;;;2.27;;
27013;SDS011;14556;52.222;4.510;2022-10-26T10:58:23;5.27;;;2.07;;
27013;SDS011;14556;52.222;4.510;2022-10-26T11:00:54;4.53;;;2.50;;
27013;SDS011;14556;52.222;4.510;2022-10-26T11:08:47;6.23;;;2.03;;
27013;SDS011;14556;52.222;4.510;2022-10-26T11:16:41;5.67;;;2.07;;
27013;SDS011;14556;52.222;4.510;2022-10-26T11:19:15;6.07;;;2.13;;
27013;SDS011;14556;52.222;4.510;2022-10-26T11:21:48;5.23;;;2.10;;
27013;SDS011;14556;52.222;4.510;2022-10-26T11:27:16;3.20;;;1.93;;
27013;SDS011;14556;52.222;4.510;2022-10-26T11:30:04;5.90;;;2.33;;
27013;SDS011;14556;52.222;4.510;2022-10-26T11:32:40;5.10;;;1.90;;
27013;SDS011;14556;52.222;4.510;2022-10-26T11:38:00;5.60;;;2.10;;
27013;SDS011;14556;52.222;4.510;2022-10-26T11:40:46;5.43;;;2.00;;
27013;SDS011;14556;52.222;4.510;2022-10-26T11:46:10;3.83;;;1.80;;
27013;SDS011;14556;52.222;4.510;2022-10-26T11:48:53;8.40;;;1.93;;
27013;SDS011;14556;52.222;4.510;2022-10-26T11:54:08;4.53;;;1.90;;
27013;SDS011;14556;52.222;4.510;2022-10-26T11:56:47;5.63;;;1.60;;
27013;SDS011;14556;52.222;4.510;2022-10-26T11:59:18;5.20;;;1.73;;
27013;SDS011;14556;52.222;4.510;2022-10-26T12:01:46;4.17;;;1.90;;
27013;SDS011;14556;52.222;4.510;2022-10-26T12:04:20;5.73;;;2.03;;
27013;SDS011;14556;52.222;4.510;2022-10-26T12:06:53;5.77;;;1.80;;
27013;SDS011;14556;52.222;4.510;2022-10-26T12:09:23;5.70;;;2.27;;
27013;SDS011;14556;52.222;4.510;2022-10-26T12:14:58;5.83;;;1.80;;
27013;SDS011;14556;52.222;4.510;2022-10-26T12:17:38;6.47;;;2.00;;
27013;SDS011;14556;52.222;4.510;2022-10-26T12:20:35;8.07;;;1.70;;
27013;SDS011;14556;52.222;4.510;2022-10-26T12:23:15;4.03;;;1.57;;
27013;SDS011;14556;52.222;4.510;2022-10-26T12:34:12;3.77;;;1.57;;
27013;SDS011;14556;52.222;4.510;2022-10-26T12:41:55;4.00;;;1.63;;
27013;SDS011;14556;52.222;4.510;2022-10-26T12:44:39;6.53;;;1.40;;
27013;SDS011;14556;52.222;4.510;2022-10-26T12:50:17;5.73;;;1.67;;
27013;SDS011;14556;52.222;4.510;2022-10-26T12:52:52;7.47;;;1.93;;
27013;SDS011;14556;52.222;4.510;2022-10-26T13:03:43;6.70;;;1.73;;
27013;SDS011;14556;52.222;4.510;2022-10-26T13:06:32;7.20;;;1.63;;
27013;SDS011;14556;52.222;4.510;2022-10-26T13:09:16;6.87;;;1.40;;
27013;SDS011;14556;52.222;4.510;2022-10-26T13:11:46;4.27;;;1.27;;
27013;SDS011;14556;52.222;4.510;2022-10-26T13:14:21;4.60;;;1.63;;
27013;SDS011;14556;52.222;4.510;2022-10-26T13:16:50;4.53;;;1.67;;
27013;SDS011;14556;52.222;4.510;2022-10-26T13:19:53;3.93;;;1.33;;
27013;SDS011;14556;52.222;4.510;2022-10-26T13:22:13;6.13;;;1.40;;
27013;SDS011;14556;52.222;4.510;2022-10-26T13:24:53;6.07;;;1.50;;
27013;SDS011;14556;52.222;4.510;2022-10-26T13:32:30;5.10;;;1.10;;
27013;SDS011;14556;52.222;4.510;2022-10-26T13:35:00;5.53;;;1.40;;
27013;SDS011;14556;52.222;4.510;2022-10-26T13:37:29;5.77;;;1.30;;
27013;SDS011;14556;52.222;4.510;2022-10-26T13:39:58;3.80;;;1.70;;
27013;SDS011;14556;52.222;4.510;2022-10-26T13:42:26;3.57;;;1.20;;
27013;SDS011;14556;52.222;4.510;2022-10-26T13:45:14;5.30;;;1.10;;
27013;SDS011;14556;52.222;4.510;2022-10-26T13:47:45;4.77;;;1.10;;
27013;SDS011;14556;52.222;4.510;2022-10-26T13:50:14;5.47;;;1.10;;
27013;SDS011;14556;52.222;4.510;2022-10-26T13:52:45;6.20;;;1.47;;
27013;SDS011;14556;52.222;4.510;2022-10-26T13:55:28;2.10;;;1.00;;
27013;SDS011;14556;52.222;4.510;2022-10-26T13:58:07;4.77;;;1.30;;
27013;SDS011;14556;52.222;4.510;2022-10-26T14:00:40;5.20;;;1.10;;
27013;SDS011;14556;52.222;4.510;2022-10-26T14:03:26;1.77;;;0.90;;
27013;SDS011;14556;52.222;4.510;2022-10-26T14:05:52;3.40;;;1.20;;
27013;SDS011;14556;52.222;4.510;2022-10-26T14:08:19;4.97;;;1.03;;
27013;SDS011;14556;52.222;4.510;2022-10-26T14:10:51;4.83;;;1.00;;
27013;SDS011;14556;52.222;4.510;2022-10-26T14:13:22;5.63;;;1.13;;
27013;SDS011;14556;52.222;4.510;2022-10-26T14:15:53;4.70;;;1.47;;
27013;SDS011;14556;52.222;4.510;2022-10-26T14:18:27;3.83;;;1.03;;
27013;SDS011;14556;52.222;4.510;2022-10-26T14:20:58;3.43;;;1.00;;
27013;SDS011;14556;52.222;4.510;2022-10-26T14:23:36;2.17;;;0.93;;
27013;SDS011;14556;52.222;4.510;2022-10-26T14:26:25;4.87;;;1.00;;
27013;SDS011;14556;52.222;4.510;2022-10-26T14:28:56;4.27;;;1.40;;
27013;SDS011;14556;52.222;4.510;2022-10-26T14:31:26;2.60;;;1.23;;
27013;SDS011;14556;52.222;4.510;2022-10-26T14:33:56;4.47;;;1.23;;
27013;SDS011;14556;52.222;4.510;2022-10-26T14:36:28;3.77;;;1.20;;
27013;SDS011;14556;52.222;4.510;2022-10-26T14:39:00;4.87;;;1.13;;
27013;SDS011;14556;52.222;4.510;2022-10-26T14:41:31;6.63;;;1.17;;
27013;SDS011;14556;52.222;4.510;2022-10-26T14:44:00;4.30;;;1.27;;
27013;SDS011;14556;52.222;4.510;2022-10-26T14:46:29;2.67;;;1.10;;
27013;SDS011;14556;52.222;4.510;2022-10-26T14:49:00;5.40;;;1.60;;
27013;SDS011;14556;52.222;4.510;2022-10-26T14:51:29;3.60;;;1.00;;
27013;SDS011;14556;52.222;4.510;2022-10-26T14:53:59;3.27;;;1.20;;
27013;SDS011;14556;52.222;4.510;2022-10-26T14:56:29;6.13;;;1.27;;
27013;SDS011;14556;52.222;4.510;2022-10-26T14:58:56;4.87;;;1.27;;
27013;SDS011;14556;52.222;4.510;2022-10-26T15:01:24;4.17;;;1.37;;
27013;SDS011;14556;52.222;4.510;2022-10-26T15:04:04;2.90;;;1.10;;
27013;SDS011;14556;52.222;4.510;2022-10-26T15:09:16;2.33;;;0.97;;
27013;SDS011;14556;52.222;4.510;2022-10-26T15:11:54;4.27;;;1.23;;
27013;SDS011;14556;52.222;4.510;2022-10-26T15:14:21;4.63;;;1.43;;
27013;SDS011;14556;52.222;4.510;2022-10-26T15:16:54;4.00;;;1.43;;
27013;SDS011;14556;52.222;4.510;2022-10-26T15:19:22;3.07;;;1.20;;
27013;SDS011;14556;52.222;4.510;2022-10-26T15:21:51;4.67;;;1.40;;
27013;SDS011;14556;52.222;4.510;2022-10-26T15:24:24;4.70;;;1.10;;
27013;SDS011;14556;52.222;4.510;2022-10-26T15:26:57;2.60;;;1.53;;
27013;SDS011;14556;52.222;4.510;2022-10-26T15:34:48;6.37;;;1.17;;
27013;SDS011;14556;52.222;4.510;2022-10-26T15:37:30;1.77;;;1.40;;
27013;SDS011;14556;52.222;4.510;2022-10-26T15:39:58;3.50;;;1.10;;
27013;SDS011;14556;52.222;4.510;2022-10-26T15:42:25;2.97;;;1.20;;
27013;SDS011;14556;52.222;4.510;2022-10-26T15:44:52;4.50;;;0.97;;
27013;SDS011;14556;52.222;4.510;2022-10-26T15:47:18;2.30;;;1.10;;
27013;SDS011;14556;52.222;4.510;2022-10-26T15:49:45;6.23;;;1.37;;
27013;SDS011;14556;52.222;4.510;2022-10-26T15:52:12;3.30;;;1.00;;
27013;SDS011;14556;52.222;4.510;2022-10-26T15:54:39;4.93;;;1.10;;
27013;SDS011;14556;52.222;4.510;2022-10-26T15:57:07;3.53;;;0.83;;
27013;SDS011;14556;52.222;4.510;2022-10-26T15:59:43;7.20;;;1.23;;
27013;SDS011;14556;52.222;4.510;2022-10-26T16:02:12;9.37;;;1.20;;
27013;SDS011;14556;52.222;4.510;2022-10-26T16:04:42;4.67;;;1.30;;
27013;SDS011;14556;52.222;4.510;2022-10-26T16:07:12;4.03;;;1.17;;
27013;SDS011;14556;52.222;4.510;2022-10-26T16:09:39;5.47;;;1.60;;
27013;SDS011;14556;52.222;4.510;2022-10-26T16:12:09;4.27;;;1.07;;
27013;SDS011;14556;52.222;4.510;2022-10-26T16:14:37;9.70;;;1.43;;
27013;SDS011;14556;52.222;4.510;2022-10-26T16:17:23;5.40;;;1.70;;
27013;SDS011;14556;52.222;4.510;2022-10-26T16:19:50;8.87;;;1.50;;
27013;SDS011;14556;52.222;4.510;2022-10-26T16:22:16;10.87;;;1.50;;
27013;SDS011;14556;52.222;4.510;2022-10-26T16:24:43;4.03;;;1.10;;
27013;SDS011;14556;52.222;4.510;2022-10-26T16:27:09;6.37;;;1.60;;
27013;SDS011;14556;52.222;4.510;2022-10-26T16:29:35;5.50;;;1.63;;
27013;SDS011;14556;52.222;4.510;2022-10-26T16:32:02;6.70;;;1.47;;
27013;SDS011;14556;52.222;4.510;2022-10-26T16:34:28;4.87;;;1.30;;
27013;SDS011;14556;52.222;4.510;2022-10-26T16:36:55;5.27;;;1.03;;
27013;SDS011;14556;52.222;4.510;2022-10-26T16:39:22;7.20;;;1.47;;
27013;SDS011;14556;52.222;4.510;2022-10-26T16:41:50;5.00;;;1.20;;
27013;SDS011;14556;52.222;4.510;2022-10-26T16:44:16;5.83;;;1.27;;
27013;SDS011;14556;52.222;4.510;2022-10-26T16:46:43;6.93;;;1.30;;
27013;SDS011;14556;52.222;4.510;2022-10-26T16:49:10;5.53;;;1.10;;
27013;SDS011;14556;52.222;4.510;2022-10-26T16:51:36;9.67;;;1.50;;
27013;SDS011;14556;52.222;4.510;2022-10-26T16:54:03;6.47;;;1.30;;
27013;SDS011;14556;52.222;4.510;2022-10-26T16:56:30;5.63;;;1.00;;
27013;SDS011;14556;52.222;4.510;2022-10-26T16:58:56;9.03;;;1.30;;
27013;SDS011;14556;52.222;4.510;2022-10-26T17:01:23;4.30;;;1.00;;
27013;SDS011;14556;52.222;4.510;2022-10-26T17:03:50;4.90;;;1.40;;
27013;SDS011;14556;52.222;4.510;2022-10-26T17:06:18;7.07;;;1.20;;
27013;SDS011;14556;52.222;4.510;2022-10-26T17:08:44;8.40;;;1.20;;
27013;SDS011;14556;52.222;4.510;2022-10-26T17:11:15;7.77;;;1.20;;
27013;SDS011;14556;52.222;4.510;2022-10-26T17:13:43;4.57;;;1.10;;
27013;SDS011;14556;52.222;4.510;2022-10-26T17:16:14;6.20;;;1.30;;
27013;SDS011;14556;52.222;4.510;2022-10-26T17:18:45;7.17;;;1.20;;
27013;SDS011;14556;52.222;4.510;2022-10-26T17:21:13;8.00;;;1.13;;